createdAt,value
2022-11-21T00:03:43.849Z,77.41
2022-11-21T00:08:46.473Z,77.24
2022-11-21T00:13:48.868Z,77.32
2022-11-21T00:18:50.980Z,77.37
2022-11-21T00:23:53.577Z,77.31
2022-11-21T00:28:55.681Z,77.45
2022-11-21T00:33:57.822Z,77.36
2022-11-21T00:39:00.157Z,77.46
2022-11-21T00:44:02.463Z,77.39
2022-11-21T00:49:04.595Z,77.34
2022-11-21T00:54:06.756Z,77.55
2022-11-21T00:59:08.936Z,77.42
2022-11-21T01:04:11.195Z,77.42
2022-11-21T01:09:13.359Z,77.54
2022-11-21T01:14:15.598Z,77.47
2022-11-21T01:19:17.735Z,77.53
2022-11-21T01:24:19.903Z,77.50
2022-11-21T01:29:22.243Z,77.29
2022-11-21T01:34:24.568Z,77.31
2022-11-21T01:39:26.708Z,77.41
2022-11-21T01:44:50.579Z,77.82
2022-11-21T01:49:53.800Z,77.63
2022-11-21T01:55:07.198Z,77.31
2022-11-21T02:00:22.865Z,77.77
2022-11-21T02:05:32.308Z,77.44
2022-11-21T02:10:35.906Z,77.62
2022-11-21T02:15:38.318Z,77.49
2022-11-21T02:20:42.253Z,77.43
2022-11-21T02:25:44.587Z,77.37
2022-11-21T02:30:47.075Z,77.41
2022-11-21T02:36:00.397Z,77.67
2022-11-21T02:41:28.523Z,77.76
2022-11-21T02:46:30.871Z,77.61
2022-11-21T02:51:32.983Z,77.69
2022-11-21T02:56:35.165Z,77.69
2022-11-21T03:01:37.645Z,77.70
2022-11-21T03:06:39.833Z,77.70
2022-11-21T03:11:41.931Z,77.78
2022-11-21T03:16:43.968Z,77.72
2022-11-21T03:21:45.981Z,77.80
2022-11-21T03:26:48.084Z,77.84
2022-11-21T03:31:50.147Z,77.85
2022-11-21T03:36:52.313Z,77.88
2022-11-21T03:41:54.352Z,77.84
2022-11-21T03:46:56.447Z,77.81
2022-11-21T03:51:58.449Z,77.85
2022-11-21T03:57:00.469Z,77.63
2022-11-21T04:02:02.607Z,77.84
2022-11-21T04:07:04.870Z,77.69
2022-11-21T04:12:08.010Z,77.79
2022-11-21T04:17:10.289Z,77.83
2022-11-21T04:22:12.434Z,77.68
2022-11-21T04:27:14.492Z,77.70
2022-11-21T04:32:16.627Z,77.85
2022-11-21T04:37:18.780Z,77.74
2022-11-21T04:42:20.906Z,77.71
2022-11-21T04:47:22.962Z,77.52
2022-11-21T04:52:25.091Z,77.72
2022-11-21T04:57:30.968Z,77.67
2022-11-21T05:02:33.977Z,77.81
2022-11-21T05:07:36.252Z,77.71
2022-11-21T05:12:56.718Z,77.57
2022-11-21T05:18:00.177Z,77.66
2022-11-21T05:23:02.351Z,77.65
2022-11-21T05:28:04.638Z,77.76
2022-11-21T05:33:07.331Z,77.71
2022-11-21T05:38:09.516Z,77.93
2022-11-21T05:43:31.254Z,77.97
2022-11-21T05:48:34.548Z,77.70
2022-11-21T05:53:36.861Z,77.88
2022-11-21T05:58:39.410Z,77.89
2022-11-21T06:03:42.482Z,77.80
2022-11-21T06:08:46.459Z,77.93
2022-11-21T06:13:48.647Z,77.82
2022-11-21T06:18:57.914Z,77.89
2022-11-21T06:24:00.772Z,77.77
2022-11-21T06:29:02.922Z,77.64
2022-11-21T06:34:05.058Z,77.73
2022-11-21T06:39:07.182Z,77.67
2022-11-21T06:44:10.536Z,77.83
2022-11-21T06:49:12.924Z,77.79
2022-11-21T06:54:28.615Z,77.84
2022-11-21T06:59:30.766Z,77.40
2022-11-21T07:04:32.906Z,77.76
2022-11-21T07:09:36.076Z,77.42
2022-11-21T07:14:38.247Z,77.32
2022-11-21T07:19:41.081Z,77.26
2022-11-21T07:24:43.354Z,77.10
2022-11-21T07:29:45.461Z,77.03
2022-11-21T07:34:47.538Z,77.08
2022-11-21T07:39:49.621Z,76.82
2022-11-21T07:44:51.645Z,77.00
2022-11-21T07:49:53.728Z,76.88
2022-11-21T07:54:56.040Z,76.93
2022-11-21T07:59:58.252Z,76.83
2022-11-21T08:05:00.312Z,76.66
2022-11-21T08:10:02.400Z,76.50
2022-11-21T08:15:07.081Z,76.70
2022-11-21T08:20:09.632Z,76.71
2022-11-21T08:25:11.811Z,76.61
2022-11-21T08:30:15.205Z,76.47
2022-11-21T08:35:17.659Z,76.56
2022-11-21T08:40:19.648Z,76.49
2022-11-21T08:45:21.687Z,76.23
2022-11-21T08:50:24.721Z,76.46
2022-11-21T08:55:29.895Z,76.35
2022-11-21T09:00:32.018Z,76.42
2022-11-21T09:05:34.152Z,76.05
2022-11-21T09:10:36.334Z,75.92
2022-11-21T09:15:57.136Z,75.92
2022-11-21T09:20:59.183Z,75.76
2022-11-21T09:26:01.682Z,75.56
2022-11-21T09:31:04.682Z,75.79
2022-11-21T09:36:06.817Z,75.65
2022-11-21T09:41:47.671Z,75.78
2022-11-21T09:46:51.076Z,75.47
2022-11-21T09:51:54.431Z,75.28
2022-11-21T09:56:56.570Z,75.50
2022-11-21T10:01:59.287Z,75.20
2022-11-21T10:07:25.369Z,75.38
2022-11-21T10:12:50.824Z,75.25
2022-11-21T10:18:14.922Z,75.18
2022-11-21T10:23:35.036Z,75.02
2022-11-21T10:28:52.609Z,74.95
2022-11-21T10:33:57.254Z,74.74
2022-11-21T10:39:02.972Z,74.70
2022-11-21T10:44:47.617Z,74.30
2022-11-21T10:49:49.838Z,74.44
2022-11-21T10:55:04.140Z,74.56
2022-11-21T11:00:12.920Z,74.46
2022-11-21T11:05:24.566Z,74.29
2022-11-21T11:10:28.007Z,74.28
2022-11-21T11:15:30.345Z,74.41
2022-11-21T11:20:41.561Z,74.19
2022-11-21T11:25:52.275Z,74.18
2022-11-21T11:30:55.399Z,74.37
2022-11-21T11:36:06.018Z,74.01
2022-11-21T11:42:22.352Z,73.83
2022-11-21T11:47:31.031Z,74.13
2022-11-21T11:52:38.680Z,74.01
2022-11-21T11:57:41.906Z,74.27
2022-11-21T12:03:14.912Z,74.39
2022-11-21T12:13:47.982Z,74.13
2022-11-21T12:19:05.809Z,73.90
2022-11-21T12:24:09.421Z,74.06
2022-11-21T12:29:48.165Z,73.96
2022-11-21T12:35:23.930Z,74.08
2022-11-21T12:40:53.785Z,74.18
2022-11-21T12:46:09.878Z,73.89
2022-11-21T12:51:50.232Z,73.71
2022-11-21T12:56:58.018Z,73.55
2022-11-21T13:02:29.381Z,73.41
2022-11-21T13:07:32.518Z,73.74
2022-11-21T13:12:40.269Z,73.63
2022-11-21T13:17:45.918Z,73.92
2022-11-21T13:22:49.890Z,74.10
2022-11-21T13:27:54.901Z,74.44
2022-11-21T13:33:00.271Z,73.98
2022-11-21T13:38:06.787Z,74.06
2022-11-21T13:43:35.781Z,74.10
2022-11-21T13:48:54.423Z,74.04
2022-11-21T13:54:14.935Z,74.52
2022-11-21T13:59:54.146Z,74.52
2022-11-21T14:04:56.315Z,74.38
2022-11-21T14:10:04.001Z,74.39
2022-11-21T14:15:06.786Z,74.56
2022-11-21T14:20:16.482Z,74.34
2022-11-21T14:25:20.790Z,74.62
2022-11-21T14:30:38.183Z,74.56
2022-11-21T14:35:40.658Z,74.29
2022-11-21T14:40:42.932Z,74.64
2022-11-21T14:45:51.138Z,74.89
2022-11-21T14:50:53.752Z,74.68
2022-11-21T14:56:01.281Z,74.38
2022-11-21T15:01:05.168Z,74.76
2022-11-21T15:06:11.205Z,75.04
2022-11-21T15:11:14.461Z,74.52
2022-11-21T15:16:16.918Z,75.02
2022-11-21T15:21:19.222Z,74.70
2022-11-21T15:26:32.612Z,75.15
2022-11-21T15:31:34.751Z,75.07
2022-11-21T15:36:36.917Z,74.86
2022-11-21T15:41:39.238Z,75.24
2022-11-21T15:46:45.239Z,75.02
2022-11-21T15:52:09.507Z,74.57
2022-11-21T15:57:14.076Z,74.59
2022-11-21T16:02:17.510Z,74.93
2022-11-21T16:07:19.836Z,74.72
2022-11-21T16:12:25.279Z,74.95
2022-11-21T16:17:27.688Z,75.01
2022-11-21T16:22:29.985Z,75.11
2022-11-21T16:27:32.830Z,75.23
2022-11-21T16:32:35.192Z,75.30
2022-11-21T16:37:37.504Z,74.69
2022-11-21T16:42:40.151Z,75.01
2022-11-21T16:47:47.420Z,75.32
2022-11-21T16:52:51.334Z,75.27
2022-11-21T16:57:53.836Z,75.15
2022-11-21T17:02:57.270Z,75.03
2022-11-21T17:07:59.404Z,75.19
2022-11-21T17:13:01.880Z,74.95
2022-11-21T17:18:04.170Z,74.97
2022-11-21T17:23:06.427Z,75.41
2022-11-21T17:28:08.571Z,74.90
2022-11-21T17:33:11.048Z,74.80
2022-11-21T17:38:13.897Z,74.99
2022-11-21T17:43:16.098Z,74.93
2022-11-21T17:48:18.319Z,75.02
2022-11-21T17:53:20.482Z,75.15
2022-11-21T17:58:22.624Z,75.14
2022-11-21T18:03:25.314Z,75.15
2022-11-21T18:08:30.478Z,75.17
2022-11-21T18:13:34.209Z,75.29
2022-11-21T18:18:36.894Z,75.48
2022-11-21T18:23:39.430Z,75.70
2022-11-21T18:28:41.889Z,75.80
2022-11-21T18:33:44.946Z,75.59
2022-11-21T18:38:50.544Z,75.77
2022-11-21T18:43:57.722Z,75.78
2022-11-21T18:49:05.374Z,75.83
2022-11-21T18:54:09.798Z,76.06
2022-11-21T18:59:11.950Z,76.23
2022-11-21T19:04:14.176Z,76.17
2022-11-21T19:09:16.399Z,76.52
2022-11-21T19:14:18.662Z,76.33
2022-11-21T19:19:36.476Z,76.44
2022-11-21T19:24:38.708Z,76.17
2022-11-21T19:29:40.895Z,76.36
2022-11-21T19:34:43.021Z,76.90
2022-11-21T19:39:45.549Z,77.03
2022-11-21T19:44:47.839Z,76.55
2022-11-21T19:49:50.071Z,76.95
2022-11-21T19:54:58.647Z,76.54
2022-11-21T20:00:00.827Z,76.68
2022-11-21T20:05:04.068Z,76.74
2022-11-21T20:10:06.864Z,76.90
2022-11-21T20:15:09.629Z,76.97
2022-11-21T20:20:11.914Z,76.42
2022-11-21T20:25:14.289Z,77.05
2022-11-21T20:30:16.909Z,76.62
2022-11-21T20:35:19.238Z,76.89
2022-11-21T20:40:21.436Z,76.93
2022-11-21T20:46:07.087Z,76.78
2022-11-21T20:56:15.331Z,77.29
2022-11-21T21:01:19.353Z,77.05
2022-11-21T21:06:24.313Z,77.01
2022-11-21T21:16:49.427Z,77.20
2022-11-21T21:21:51.627Z,76.88
2022-11-21T21:26:53.817Z,77.27
2022-11-21T21:31:56.137Z,77.11
2022-11-21T21:36:58.858Z,77.05
2022-11-21T21:42:01.080Z,76.88
2022-11-21T21:47:03.427Z,76.67
2022-11-21T21:52:06.604Z,77.09
2022-11-21T21:57:08.853Z,77.26
2022-11-21T22:02:12.021Z,77.25
2022-11-21T22:07:14.313Z,77.40
2022-11-21T22:12:16.532Z,77.56
2022-11-21T22:17:18.740Z,77.37
2022-11-21T22:22:20.831Z,77.24
2022-11-21T22:27:23.197Z,77.32
2022-11-21T22:32:25.318Z,77.47
2022-11-21T22:37:27.451Z,77.54
2022-11-21T22:42:29.844Z,77.60
2022-11-21T22:47:32.039Z,77.17
2022-11-21T22:52:34.285Z,77.46
2022-11-21T22:57:36.649Z,77.16
2022-11-21T23:02:38.853Z,77.25
2022-11-21T23:07:41.267Z,77.75
2022-11-21T23:12:43.696Z,77.47
2022-11-21T23:17:51.044Z,77.52
2022-11-21T23:22:56.858Z,77.49
2022-11-21T23:27:59.119Z,77.43
2022-11-21T23:33:02.292Z,77.56
2022-11-21T23:38:04.718Z,77.37
2022-11-21T23:43:07.130Z,77.19
2022-11-21T23:48:09.415Z,77.27
2022-11-21T23:53:11.818Z,77.38
2022-11-21T23:58:14.235Z,77.87
